Etusivu
METAR-TAF:

METAR-TAF

Lentoasemat :

Tulsa, Oklahoma, Yhdysvallat

Leveyspiiri: 36-11-51N, Pituuspiiri: 095-53-11W, korkeus merenpinnasta: 206 m

Tämänhetkinen sää

Tämä raportti tehtiin 27 minuuttia sitten, kello 15.53 UTC
Tuuli 10 kn etelästä/lounaasta puuskistuen 19 kn:hen
Lämpötila 31°C
Kosteus 55%
Ilmanpaine 1016 hPa
Näkyvyys: 16.1 km
selkeää

METAR: KTUL 141553Z 20010G19KT 10SM CLR 31/21 A2999 RMK AO2 SLP144 T03060211

Aika: 11:20 (16:20 UTC)

Sääennuste

Tämä raportti tehtiin 5 tuntia ja 0 minuuttia sitten, kello 11.20 UTC
Ennuste voimassa 14. päivästä klo 12 UTC - 15. päivään klo 12 UTC
Tuuli 7 kn idästä
Näkyvyys: 10 km
Hajanaisia pilviä 10000 ft:n korkeudessa
Hajonneita pilviä 25000 ft:n korkeudessa
From 14. päivästä klo 1500 UTC
Tuuli 6 kn lounaasta
Näkyvyys: 10 km
Hajanaisia pilviä 25000 ft:n korkeudessa

TAF: KTUL 141120Z 1412/1512 09007KT P6SM SCT100 BKN250 FM141500 22006KT P6SM SCT250

Säähavainnot ja -ennusteet yli 4000 lentoasemalta (METAR- ja TAF-raportit).

Käytössä olevat sääasemat on merkitty karttaan keltaisilla ja punaisilla pisteillä.

Aseta hiiri pisteen päälle nähdäksesi sääaseman nimen.

Klikkaa sitten nähdäksesi säähavainnot ja -ennusteet.

Kartan vaihtaminen: klikkaa mustalla rastilla varustettuja vihreitä pisteitä, niin voit zoomata sisään; viivalla varustettua vihreää pistettä, niin voit zoomata ulos tai vihreitä nuolia, niin pääset viereisille kartoille.


METAR-TAF: